sensor_id;sensor_type;location;lat;lon;timestamp;P1;durP1;ratioP1;P2;durP2;ratioP2
8927;SDS011;4499;48.304;11.902;2023-01-09T00:01:39;26.97;;;20.33;;
8927;SDS011;4499;48.304;11.902;2023-01-09T00:04:09;25.37;;;19.63;;
8927;SDS011;4499;48.304;11.902;2023-01-09T00:06:38;26.40;;;19.67;;
8927;SDS011;4499;48.304;11.902;2023-01-09T00:09:08;24.57;;;20.03;;
8927;SDS011;4499;48.304;11.902;2023-01-09T00:11:38;24.73;;;19.80;;
8927;SDS011;4499;48.304;11.902;2023-01-09T00:14:06;25.70;;;19.37;;
8927;SDS011;4499;48.304;11.902;2023-01-09T00:16:36;25.07;;;20.17;;
8927;SDS011;4499;48.304;11.902;2023-01-09T00:19:05;26.93;;;21.43;;
8927;SDS011;4499;48.304;11.902;2023-01-09T00:21:34;25.33;;;20.63;;
8927;SDS011;4499;48.304;11.902;2023-01-09T00:24:03;25.50;;;20.33;;
8927;SDS011;4499;48.304;11.902;2023-01-09T00:26:32;24.57;;;20.07;;
8927;SDS011;4499;48.304;11.902;2023-01-09T00:29:02;27.97;;;20.70;;
8927;SDS011;4499;48.304;11.902;2023-01-09T00:31:30;25.27;;;20.43;;
8927;SDS011;4499;48.304;11.902;2023-01-09T00:33:59;26.80;;;20.50;;
8927;SDS011;4499;48.304;11.902;2023-01-09T00:36:31;24.40;;;20.20;;
8927;SDS011;4499;48.304;11.902;2023-01-09T00:38:59;25.07;;;20.33;;
8927;SDS011;4499;48.304;11.902;2023-01-09T00:41:29;24.13;;;19.37;;
8927;SDS011;4499;48.304;11.902;2023-01-09T00:44:00;26.33;;;19.57;;
8927;SDS011;4499;48.304;11.902;2023-01-09T00:46:33;23.73;;;19.70;;
8927;SDS011;4499;48.304;11.902;2023-01-09T00:49:05;24.63;;;19.13;;
8927;SDS011;4499;48.304;11.902;2023-01-09T00:51:38;25.00;;;19.00;;
8927;SDS011;4499;48.304;11.902;2023-01-09T00:54:07;24.90;;;19.50;;
8927;SDS011;4499;48.304;11.902;2023-01-09T00:56:37;23.30;;;18.67;;
8927;SDS011;4499;48.304;11.902;2023-01-09T00:59:07;23.80;;;18.37;;
8927;SDS011;4499;48.304;11.902;2023-01-09T01:01:35;24.33;;;19.40;;
8927;SDS011;4499;48.304;11.902;2023-01-09T01:04:04;25.60;;;19.10;;
8927;SDS011;4499;48.304;11.902;2023-01-09T01:06:46;22.00;;;18.77;;
8927;SDS011;4499;48.304;11.902;2023-01-09T01:09:31;23.10;;;18.50;;
8927;SDS011;4499;48.304;11.902;2023-01-09T01:11:59;21.93;;;17.33;;
8927;SDS011;4499;48.304;11.902;2023-01-09T01:14:34;22.60;;;18.20;;
8927;SDS011;4499;48.304;11.902;2023-01-09T01:17:03;24.13;;;18.30;;
8927;SDS011;4499;48.304;11.902;2023-01-09T01:19:32;23.70;;;18.53;;
8927;SDS011;4499;48.304;11.902;2023-01-09T01:22:00;25.57;;;18.87;;
8927;SDS011;4499;48.304;11.902;2023-01-09T01:24:29;22.83;;;18.50;;
8927;SDS011;4499;48.304;11.902;2023-01-09T01:26:57;25.40;;;19.73;;
8927;SDS011;4499;48.304;11.902;2023-01-09T01:29:26;24.13;;;18.97;;
8927;SDS011;4499;48.304;11.902;2023-01-09T01:31:56;23.70;;;18.40;;
8927;SDS011;4499;48.304;11.902;2023-01-09T01:34:24;23.10;;;18.80;;
8927;SDS011;4499;48.304;11.902;2023-01-09T01:36:54;25.70;;;19.37;;
8927;SDS011;4499;48.304;11.902;2023-01-09T01:39:22;23.80;;;18.80;;
8927;SDS011;4499;48.304;11.902;2023-01-09T01:41:51;25.20;;;18.77;;
8927;SDS011;4499;48.304;11.902;2023-01-09T01:47:26;23.70;;;19.23;;
8927;SDS011;4499;48.304;11.902;2023-01-09T01:49:58;24.40;;;18.73;;
8927;SDS011;4499;48.304;11.902;2023-01-09T01:52:29;25.00;;;18.80;;
8927;SDS011;4499;48.304;11.902;2023-01-09T01:54:59;24.50;;;18.60;;
8927;SDS011;4499;48.304;11.902;2023-01-09T01:57:27;24.20;;;19.10;;
8927;SDS011;4499;48.304;11.902;2023-01-09T01:59:57;25.63;;;19.57;;
8927;SDS011;4499;48.304;11.902;2023-01-09T02:02:30;23.93;;;18.73;;
8927;SDS011;4499;48.304;11.902;2023-01-09T02:04:59;23.97;;;18.60;;
8927;SDS011;4499;48.304;11.902;2023-01-09T02:07:28;25.37;;;19.10;;
8927;SDS011;4499;48.304;11.902;2023-01-09T02:09:56;22.83;;;18.57;;
8927;SDS011;4499;48.304;11.902;2023-01-09T02:12:26;25.73;;;18.80;;
8927;SDS011;4499;48.304;11.902;2023-01-09T02:14:57;25.07;;;19.40;;
8927;SDS011;4499;48.304;11.902;2023-01-09T02:17:33;24.00;;;19.00;;
8927;SDS011;4499;48.304;11.902;2023-01-09T02:20:32;24.90;;;19.23;;
8927;SDS011;4499;48.304;11.902;2023-01-09T02:23:11;24.40;;;18.73;;
8927;SDS011;4499;48.304;11.902;2023-01-09T02:29:08;24.07;;;18.30;;
8927;SDS011;4499;48.304;11.902;2023-01-09T02:32:05;23.77;;;18.07;;
8927;SDS011;4499;48.304;11.902;2023-01-09T02:34:38;25.00;;;18.73;;
8927;SDS011;4499;48.304;11.902;2023-01-09T02:37:16;24.77;;;18.90;;
8927;SDS011;4499;48.304;11.902;2023-01-09T02:39:53;24.73;;;18.40;;
8927;SDS011;4499;48.304;11.902;2023-01-09T02:42:29;22.90;;;17.80;;
8927;SDS011;4499;48.304;11.902;2023-01-09T02:44:59;24.60;;;17.50;;
8927;SDS011;4499;48.304;11.902;2023-01-09T02:47:37;23.60;;;17.77;;
8927;SDS011;4499;48.304;11.902;2023-01-09T02:50:09;21.43;;;17.40;;
8927;SDS011;4499;48.304;11.902;2023-01-09T02:52:45;24.13;;;17.20;;
8927;SDS011;4499;48.304;11.902;2023-01-09T02:55:30;21.97;;;17.10;;
8927;SDS011;4499;48.304;11.902;2023-01-09T02:58:10;19.83;;;16.83;;
8927;SDS011;4499;48.304;11.902;2023-01-09T03:00:47;21.87;;;16.73;;
8927;SDS011;4499;48.304;11.902;2023-01-09T03:03:25;20.13;;;16.07;;
8927;SDS011;4499;48.304;11.902;2023-01-09T03:06:04;21.00;;;14.93;;
8927;SDS011;4499;48.304;11.902;2023-01-09T03:08:37;16.67;;;14.03;;
8927;SDS011;4499;48.304;11.902;2023-01-09T03:11:08;16.97;;;14.07;;
8927;SDS011;4499;48.304;11.902;2023-01-09T03:13:38;17.97;;;14.50;;
8927;SDS011;4499;48.304;11.902;2023-01-09T03:16:11;17.67;;;14.00;;
8927;SDS011;4499;48.304;11.902;2023-01-09T03:18:49;17.23;;;13.20;;
8927;SDS011;4499;48.304;11.902;2023-01-09T03:21:18;15.90;;;12.20;;
8927;SDS011;4499;48.304;11.902;2023-01-09T03:23:49;16.33;;;13.47;;
8927;SDS011;4499;48.304;11.902;2023-01-09T03:26:18;15.63;;;12.33;;
8927;SDS011;4499;48.304;11.902;2023-01-09T03:28:46;17.03;;;13.10;;
8927;SDS011;4499;48.304;11.902;2023-01-09T03:31:15;16.13;;;12.80;;
8927;SDS011;4499;48.304;11.902;2023-01-09T03:33:44;15.60;;;12.93;;
8927;SDS011;4499;48.304;11.902;2023-01-09T03:36:14;15.83;;;13.20;;
8927;SDS011;4499;48.304;11.902;2023-01-09T03:38:43;15.17;;;12.20;;
8927;SDS011;4499;48.304;11.902;2023-01-09T03:41:12;15.30;;;12.50;;
8927;SDS011;4499;48.304;11.902;2023-01-09T03:43:40;15.03;;;11.93;;
8927;SDS011;4499;48.304;11.902;2023-01-09T03:46:08;13.43;;;11.07;;
8927;SDS011;4499;48.304;11.902;2023-01-09T03:48:36;14.80;;;11.07;;
8927;SDS011;4499;48.304;11.902;2023-01-09T03:51:04;12.13;;;10.53;;
8927;SDS011;4499;48.304;11.902;2023-01-09T03:53:34;15.33;;;10.77;;
8927;SDS011;4499;48.304;11.902;2023-01-09T03:56:02;12.97;;;10.10;;
8927;SDS011;4499;48.304;11.902;2023-01-09T03:58:31;13.10;;;10.17;;
8927;SDS011;4499;48.304;11.902;2023-01-09T04:01:00;12.60;;;10.27;;
8927;SDS011;4499;48.304;11.902;2023-01-09T04:03:29;12.80;;;10.07;;
8927;SDS011;4499;48.304;11.902;2023-01-09T04:05:58;10.50;;;9.23;;
8927;SDS011;4499;48.304;11.902;2023-01-09T04:08:26;12.23;;;8.83;;
8927;SDS011;4499;48.304;11.902;2023-01-09T04:10:57;11.17;;;8.80;;
8927;SDS011;4499;48.304;11.902;2023-01-09T04:13:25;11.83;;;8.30;;
8927;SDS011;4499;48.304;11.902;2023-01-09T04:15:53;11.60;;;8.93;;
8927;SDS011;4499;48.304;11.902;2023-01-09T04:18:22;10.30;;;8.07;;
8927;SDS011;4499;48.304;11.902;2023-01-09T04:20:50;8.93;;;7.23;;
8927;SDS011;4499;48.304;11.902;2023-01-09T04:23:20;9.63;;;7.47;;
8927;SDS011;4499;48.304;11.902;2023-01-09T04:25:48;9.50;;;7.47;;
8927;SDS011;4499;48.304;11.902;2023-01-09T04:28:18;9.00;;;7.30;;
8927;SDS011;4499;48.304;11.902;2023-01-09T04:30:46;9.63;;;7.13;;
8927;SDS011;4499;48.304;11.902;2023-01-09T04:33:15;9.70;;;7.63;;
8927;SDS011;4499;48.304;11.902;2023-01-09T04:35:43;9.83;;;7.40;;
8927;SDS011;4499;48.304;11.902;2023-01-09T04:38:11;8.60;;;7.30;;
8927;SDS011;4499;48.304;11.902;2023-01-09T04:40:40;10.40;;;6.60;;
8927;SDS011;4499;48.304;11.902;2023-01-09T04:43:08;8.87;;;6.90;;
8927;SDS011;4499;48.304;11.902;2023-01-09T04:45:38;8.13;;;6.73;;
8927;SDS011;4499;48.304;11.902;2023-01-09T04:48:08;8.97;;;6.80;;
8927;SDS011;4499;48.304;11.902;2023-01-09T04:50:36;8.73;;;6.30;;
8927;SDS011;4499;48.304;11.902;2023-01-09T04:53:04;7.57;;;6.43;;
8927;SDS011;4499;48.304;11.902;2023-01-09T04:55:32;8.93;;;6.63;;
8927;SDS011;4499;48.304;11.902;2023-01-09T04:58:00;7.53;;;6.00;;
8927;SDS011;4499;48.304;11.902;2023-01-09T05:00:29;7.97;;;5.70;;
8927;SDS011;4499;48.304;11.902;2023-01-09T05:02:59;9.20;;;6.20;;
8927;SDS011;4499;48.304;11.902;2023-01-09T05:05:28;6.63;;;5.40;;
8927;SDS011;4499;48.304;11.902;2023-01-09T05:07:56;6.73;;;5.20;;
8927;SDS011;4499;48.304;11.902;2023-01-09T05:10:25;6.13;;;4.57;;
8927;SDS011;4499;48.304;11.902;2023-01-09T05:12:53;6.83;;;4.40;;
8927;SDS011;4499;48.304;11.902;2023-01-09T05:15:21;5.27;;;3.87;;
8927;SDS011;4499;48.304;11.902;2023-01-09T05:17:49;6.77;;;3.97;;
8927;SDS011;4499;48.304;11.902;2023-01-09T05:20:19;4.20;;;3.30;;
8927;SDS011;4499;48.304;11.902;2023-01-09T05:22:47;4.53;;;3.20;;
8927;SDS011;4499;48.304;11.902;2023-01-09T05:25:15;4.00;;;3.23;;
8927;SDS011;4499;48.304;11.902;2023-01-09T05:27:44;3.67;;;3.13;;
8927;SDS011;4499;48.304;11.902;2023-01-09T05:30:12;4.73;;;3.03;;
8927;SDS011;4499;48.304;11.902;2023-01-09T05:32:43;2.90;;;2.60;;
8927;SDS011;4499;48.304;11.902;2023-01-09T05:35:11;4.63;;;2.90;;
8927;SDS011;4499;48.304;11.902;2023-01-09T05:37:41;3.80;;;3.00;;
8927;SDS011;4499;48.304;11.902;2023-01-09T05:40:10;4.00;;;2.73;;
8927;SDS011;4499;48.304;11.902;2023-01-09T05:42:38;5.03;;;2.80;;
8927;SDS011;4499;48.304;11.902;2023-01-09T05:45:08;2.97;;;2.60;;
8927;SDS011;4499;48.304;11.902;2023-01-09T05:47:38;3.67;;;2.70;;
8927;SDS011;4499;48.304;11.902;2023-01-09T05:50:06;2.30;;;2.10;;
8927;SDS011;4499;48.304;11.902;2023-01-09T05:52:35;3.33;;;1.90;;
8927;SDS011;4499;48.304;11.902;2023-01-09T05:55:06;2.23;;;1.70;;
8927;SDS011;4499;48.304;11.902;2023-01-09T05:57:35;1.50;;;1.30;;
8927;SDS011;4499;48.304;11.902;2023-01-09T06:00:04;1.63;;;1.40;;
8927;SDS011;4499;48.304;11.902;2023-01-09T06:02:32;1.30;;;1.20;;
8927;SDS011;4499;48.304;11.902;2023-01-09T06:05:01;1.20;;;1.10;;
8927;SDS011;4499;48.304;11.902;2023-01-09T06:07:29;1.47;;;1.00;;
8927;SDS011;4499;48.304;11.902;2023-01-09T06:10:00;1.10;;;0.70;;
8927;SDS011;4499;48.304;11.902;2023-01-09T06:12:30;0.77;;;0.77;;
8927;SDS011;4499;48.304;11.902;2023-01-09T06:14:58;1.23;;;0.53;;
8927;SDS011;4499;48.304;11.902;2023-01-09T06:17:26;0.50;;;0.50;;
8927;SDS011;4499;48.304;11.902;2023-01-09T06:19:55;0.80;;;0.80;;
8927;SDS011;4499;48.304;11.902;2023-01-09T06:22:24;1.20;;;0.70;;
8927;SDS011;4499;48.304;11.902;2023-01-09T06:24:52;0.70;;;0.70;;
8927;SDS011;4499;48.304;11.902;2023-01-09T06:27:20;0.70;;;0.67;;
8927;SDS011;4499;48.304;11.902;2023-01-09T06:29:50;0.83;;;0.70;;
8927;SDS011;4499;48.304;11.902;2023-01-09T06:32:18;0.60;;;0.60;;
8927;SDS011;4499;48.304;11.902;2023-01-09T06:34:47;0.40;;;0.40;;
8927;SDS011;4499;48.304;11.902;2023-01-09T06:37:15;0.50;;;0.50;;
8927;SDS011;4499;48.304;11.902;2023-01-09T06:39:43;0.53;;;0.53;;
8927;SDS011;4499;48.304;11.902;2023-01-09T06:42:11;0.63;;;0.57;;
8927;SDS011;4499;48.304;11.902;2023-01-09T06:44:39;0.70;;;0.70;;
8927;SDS011;4499;48.304;11.902;2023-01-09T06:47:10;0.80;;;0.73;;
8927;SDS011;4499;48.304;11.902;2023-01-09T06:49:38;0.70;;;0.70;;
8927;SDS011;4499;48.304;11.902;2023-01-09T06:52:06;0.50;;;0.50;;
8927;SDS011;4499;48.304;11.902;2023-01-09T06:54:34;0.43;;;0.40;;
8927;SDS011;4499;48.304;11.902;2023-01-09T06:57:02;0.37;;;0.37;;
8927;SDS011;4499;48.304;11.902;2023-01-09T06:59:31;0.40;;;0.40;;
8927;SDS011;4499;48.304;11.902;2023-01-09T07:01:59;1.50;;;0.30;;
8927;SDS011;4499;48.304;11.902;2023-01-09T07:04:29;0.50;;;0.40;;
8927;SDS011;4499;48.304;11.902;2023-01-09T07:06:57;0.30;;;0.30;;
8927;SDS011;4499;48.304;11.902;2023-01-09T07:09:25;0.60;;;0.60;;
8927;SDS011;4499;48.304;11.902;2023-01-09T07:11:54;0.97;;;0.50;;
8927;SDS011;4499;48.304;11.902;2023-01-09T07:14:22;1.20;;;0.70;;
8927;SDS011;4499;48.304;11.902;2023-01-09T07:16:50;0.63;;;0.50;;
8927;SDS011;4499;48.304;11.902;2023-01-09T07:19:18;0.40;;;0.40;;
8927;SDS011;4499;48.304;11.902;2023-01-09T07:21:48;0.40;;;0.40;;
8927;SDS011;4499;48.304;11.902;2023-01-09T07:24:16;0.30;;;0.23;;
8927;SDS011;4499;48.304;11.902;2023-01-09T07:26:45;0.30;;;0.30;;
8927;SDS011;4499;48.304;11.902;2023-01-09T07:29:13;0.50;;;0.30;;
8927;SDS011;4499;48.304;11.902;2023-01-09T07:31:41;0.60;;;0.30;;
8927;SDS011;4499;48.304;11.902;2023-01-09T07:34:10;1.10;;;0.30;;
8927;SDS011;4499;48.304;11.902;2023-01-09T07:36:38;0.83;;;0.50;;
8927;SDS011;4499;48.304;11.902;2023-01-09T07:39:08;0.30;;;0.30;;
8927;SDS011;4499;48.304;11.902;2023-01-09T07:41:36;1.13;;;0.50;;
8927;SDS011;4499;48.304;11.902;2023-01-09T07:44:04;0.60;;;0.60;;
8927;SDS011;4499;48.304;11.902;2023-01-09T07:46:36;0.47;;;0.40;;
8927;SDS011;4499;48.304;11.902;2023-01-09T07:49:05;0.97;;;0.80;;
8927;SDS011;4499;48.304;11.902;2023-01-09T07:51:34;0.90;;;0.90;;
8927;SDS011;4499;48.304;11.902;2023-01-09T07:54:04;0.60;;;0.60;;
8927;SDS011;4499;48.304;11.902;2023-01-09T07:56:34;5.30;;;0.50;;
8927;SDS011;4499;48.304;11.902;2023-01-09T07:59:02;0.93;;;0.33;;
8927;SDS011;4499;48.304;11.902;2023-01-09T08:01:31;0.50;;;0.40;;
8927;SDS011;4499;48.304;11.902;2023-01-09T08:04:00;0.60;;;0.40;;
8927;SDS011;4499;48.304;11.902;2023-01-09T08:06:28;0.40;;;0.40;;
8927;SDS011;4499;48.304;11.902;2023-01-09T08:08:57;0.27;;;0.27;;
8927;SDS011;4499;48.304;11.902;2023-01-09T08:11:26;0.30;;;0.30;;
8927;SDS011;4499;48.304;11.902;2023-01-09T08:13:56;0.40;;;0.40;;
8927;SDS011;4499;48.304;11.902;2023-01-09T08:16:24;0.40;;;0.33;;
8927;SDS011;4499;48.304;11.902;2023-01-09T08:18:52;0.40;;;0.40;;
8927;SDS011;4499;48.304;11.902;2023-01-09T08:21:20;0.30;;;0.30;;
8927;SDS011;4499;48.304;11.902;2023-01-09T08:23:49;1.03;;;0.40;;
8927;SDS011;4499;48.304;11.902;2023-01-09T08:26:18;0.37;;;0.30;;
8927;SDS011;4499;48.304;11.902;2023-01-09T08:28:46;0.30;;;0.30;;
8927;SDS011;4499;48.304;11.902;2023-01-09T08:31:16;0.80;;;0.50;;
8927;SDS011;4499;48.304;11.902;2023-01-09T08:33:44;0.30;;;0.30;;
8927;SDS011;4499;48.304;11.902;2023-01-09T08:36:12;0.80;;;0.80;;
8927;SDS011;4499;48.304;11.902;2023-01-09T08:38:43;1.00;;;0.70;;
8927;SDS011;4499;48.304;11.902;2023-01-09T08:41:12;0.60;;;0.60;;
8927;SDS011;4499;48.304;11.902;2023-01-09T08:43:57;1.40;;;1.00;;
8927;SDS011;4499;48.304;11.902;2023-01-09T08:46:45;1.40;;;1.30;;
8927;SDS011;4499;48.304;11.902;2023-01-09T08:49:32;2.20;;;2.00;;
8927;SDS011;4499;48.304;11.902;2023-01-09T08:52:01;1.97;;;0.90;;
8927;SDS011;4499;48.304;11.902;2023-01-09T08:54:30;1.00;;;0.80;;
8927;SDS011;4499;48.304;11.902;2023-01-09T08:57:02;0.50;;;0.40;;
8927;SDS011;4499;48.304;11.902;2023-01-09T08:59:30;0.80;;;0.40;;
8927;SDS011;4499;48.304;11.902;2023-01-09T09:02:00;0.40;;;0.40;;
8927;SDS011;4499;48.304;11.902;2023-01-09T09:04:28;0.50;;;0.50;;
8927;SDS011;4499;48.304;11.902;2023-01-09T09:06:57;1.83;;;1.00;;
8927;SDS011;4499;48.304;11.902;2023-01-09T09:09:25;1.07;;;0.67;;
8927;SDS011;4499;48.304;11.902;2023-01-09T09:11:53;0.50;;;0.50;;
8927;SDS011;4499;48.304;11.902;2023-01-09T09:14:22;9.63;;;6.60;;
8927;SDS011;4499;48.304;11.902;2023-01-09T09:17:09;19.67;;;17.53;;
8927;SDS011;4499;48.304;11.902;2023-01-09T09:19:37;6.43;;;5.07;;
8927;SDS011;4499;48.304;11.902;2023-01-09T09:22:07;2.13;;;1.90;;
8927;SDS011;4499;48.304;11.902;2023-01-09T09:24:36;0.80;;;0.80;;
8927;SDS011;4499;48.304;11.902;2023-01-09T09:27:04;1.13;;;1.03;;
8927;SDS011;4499;48.304;11.902;2023-01-09T09:29:33;1.93;;;1.70;;
8927;SDS011;4499;48.304;11.902;2023-01-09T09:32:01;1.70;;;1.40;;
8927;SDS011;4499;48.304;11.902;2023-01-09T09:34:31;1.43;;;1.00;;
8927;SDS011;4499;48.304;11.902;2023-01-09T09:37:00;1.60;;;1.50;;
8927;SDS011;4499;48.304;11.902;2023-01-09T09:39:28;1.30;;;1.20;;
8927;SDS011;4499;48.304;11.902;2023-01-09T09:42:01;1.77;;;1.10;;
8927;SDS011;4499;48.304;11.902;2023-01-09T09:45:00;1.87;;;1.37;;
8927;SDS011;4499;48.304;11.902;2023-01-09T09:47:43;6.20;;;5.13;;
8927;SDS011;4499;48.304;11.902;2023-01-09T09:50:27;5.70;;;5.03;;
8927;SDS011;4499;48.304;11.902;2023-01-09T09:53:05;3.40;;;2.33;;
8927;SDS011;4499;48.304;11.902;2023-01-09T09:55:40;3.73;;;3.30;;
8927;SDS011;4499;48.304;11.902;2023-01-09T09:58:15;1.03;;;0.60;;
8927;SDS011;4499;48.304;11.902;2023-01-09T10:00:47;1.23;;;1.00;;
8927;SDS011;4499;48.304;11.902;2023-01-09T10:03:20;1.27;;;0.70;;
8927;SDS011;4499;48.304;11.902;2023-01-09T10:06:01;1.93;;;0.90;;
8927;SDS011;4499;48.304;11.902;2023-01-09T10:08:36;3.80;;;0.93;;
8927;SDS011;4499;48.304;11.902;2023-01-09T10:11:11;0.57;;;0.57;;
8927;SDS011;4499;48.304;11.902;2023-01-09T10:13:43;2.00;;;0.50;;
8927;SDS011;4499;48.304;11.902;2023-01-09T10:16:35;1.03;;;0.63;;
8927;SDS011;4499;48.304;11.902;2023-01-09T10:19:18;2.57;;;0.63;;
8927;SDS011;4499;48.304;11.902;2023-01-09T10:22:00;1.23;;;0.80;;
8927;SDS011;4499;48.304;11.902;2023-01-09T10:24:39;3.63;;;0.87;;
8927;SDS011;4499;48.304;11.902;2023-01-09T10:27:20;6.50;;;5.63;;
8927;SDS011;4499;48.304;11.902;2023-01-09T10:30:11;16.47;;;12.90;;
8927;SDS011;4499;48.304;11.902;2023-01-09T10:32:53;1.97;;;0.90;;
8927;SDS011;4499;48.304;11.902;2023-01-09T10:35:43;2.97;;;1.60;;
8927;SDS011;4499;48.304;11.902;2023-01-09T10:38:25;3.70;;;1.70;;
8927;SDS011;4499;48.304;11.902;2023-01-09T10:41:02;7.00;;;3.70;;
8927;SDS011;4499;48.304;11.902;2023-01-09T10:43:35;3.63;;;2.20;;
8927;SDS011;4499;48.304;11.902;2023-01-09T10:46:10;2.83;;;1.03;;
8927;SDS011;4499;48.304;11.902;2023-01-09T10:48:46;4.13;;;1.30;;
8927;SDS011;4499;48.304;11.902;2023-01-09T10:51:19;3.63;;;1.63;;
8927;SDS011;4499;48.304;11.902;2023-01-09T10:53:50;5.57;;;1.80;;
8927;SDS011;4499;48.304;11.902;2023-01-09T10:56:21;5.30;;;1.80;;
8927;SDS011;4499;48.304;11.902;2023-01-09T10:58:51;6.50;;;1.70;;
8927;SDS011;4499;48.304;11.902;2023-01-09T11:01:23;6.03;;;1.47;;
8927;SDS011;4499;48.304;11.902;2023-01-09T11:03:52;5.20;;;1.50;;
8927;SDS011;4499;48.304;11.902;2023-01-09T11:06:25;3.73;;;1.37;;
8927;SDS011;4499;48.304;11.902;2023-01-09T11:09:00;2.17;;;1.40;;
8927;SDS011;4499;48.304;11.902;2023-01-09T11:11:34;5.70;;;1.53;;
8927;SDS011;4499;48.304;11.902;2023-01-09T11:14:04;4.90;;;1.37;;
8927;SDS011;4499;48.304;11.902;2023-01-09T11:16:42;3.50;;;1.40;;
8927;SDS011;4499;48.304;11.902;2023-01-09T11:19:18;4.70;;;1.50;;
8927;SDS011;4499;48.304;11.902;2023-01-09T11:21:46;4.17;;;1.27;;
8927;SDS011;4499;48.304;11.902;2023-01-09T11:24:26;4.17;;;1.40;;
8927;SDS011;4499;48.304;11.902;2023-01-09T11:27:15;4.37;;;1.37;;
8927;SDS011;4499;48.304;11.902;2023-01-09T11:30:09;3.83;;;1.00;;
8927;SDS011;4499;48.304;11.902;2023-01-09T11:32:42;3.93;;;1.10;;
8927;SDS011;4499;48.304;11.902;2023-01-09T11:35:16;3.97;;;1.20;;
8927;SDS011;4499;48.304;11.902;2023-01-09T11:38:02;1.87;;;1.10;;
8927;SDS011;4499;48.304;11.902;2023-01-09T11:40:37;4.30;;;0.97;;
8927;SDS011;4499;48.304;11.902;2023-01-09T11:43:19;2.20;;;1.20;;
8927;SDS011;4499;48.304;11.902;2023-01-09T11:45:56;3.80;;;1.07;;
8927;SDS011;4499;48.304;11.902;2023-01-09T11:48:31;5.93;;;1.93;;
8927;SDS011;4499;48.304;11.902;2023-01-09T11:51:09;3.20;;;1.07;;
8927;SDS011;4499;48.304;11.902;2023-01-09T11:53:51;3.43;;;1.10;;
8927;SDS011;4499;48.304;11.902;2023-01-09T11:56:25;3.07;;;0.90;;
8927;SDS011;4499;48.304;11.902;2023-01-09T11:58:54;4.37;;;1.10;;
8927;SDS011;4499;48.304;11.902;2023-01-09T12:01:35;3.27;;;1.30;;
8927;SDS011;4499;48.304;11.902;2023-01-09T12:04:26;3.27;;;1.63;;
8927;SDS011;4499;48.304;11.902;2023-01-09T12:07:05;5.17;;;1.30;;
8927;SDS011;4499;48.304;11.902;2023-01-09T12:09:51;2.63;;;1.50;;
8927;SDS011;4499;48.304;11.902;2023-01-09T12:12:28;3.93;;;0.93;;
8927;SDS011;4499;48.304;11.902;2023-01-09T12:15:14;3.03;;;1.13;;
8927;SDS011;4499;48.304;11.902;2023-01-09T12:17:57;3.77;;;1.10;;
8927;SDS011;4499;48.304;11.902;2023-01-09T12:20:52;3.60;;;1.03;;
8927;SDS011;4499;48.304;11.902;2023-01-09T12:23:38;2.30;;;1.30;;
8927;SDS011;4499;48.304;11.902;2023-01-09T12:26:18;8.33;;;3.47;;
8927;SDS011;4499;48.304;11.902;2023-01-09T12:28:55;2.03;;;1.10;;
8927;SDS011;4499;48.304;11.902;2023-01-09T12:31:50;3.53;;;1.13;;
8927;SDS011;4499;48.304;11.902;2023-01-09T12:34:36;1.10;;;0.83;;
8927;SDS011;4499;48.304;11.902;2023-01-09T12:37:19;4.60;;;1.00;;
8927;SDS011;4499;48.304;11.902;2023-01-09T12:40:05;3.10;;;1.10;;
8927;SDS011;4499;48.304;11.902;2023-01-09T12:42:49;3.43;;;1.03;;
8927;SDS011;4499;48.304;11.902;2023-01-09T12:48:23;3.07;;;0.80;;
8927;SDS011;4499;48.304;11.902;2023-01-09T12:51:05;2.37;;;0.90;;
8927;SDS011;4499;48.304;11.902;2023-01-09T12:53:41;2.83;;;0.90;;
8927;SDS011;4499;48.304;11.902;2023-01-09T12:56:13;2.60;;;0.83;;
8927;SDS011;4499;48.304;11.902;2023-01-09T12:58:46;3.87;;;0.80;;
8927;SDS011;4499;48.304;11.902;2023-01-09T13:01:20;2.80;;;0.90;;
8927;SDS011;4499;48.304;11.902;2023-01-09T13:03:53;4.70;;;1.10;;
8927;SDS011;4499;48.304;11.902;2023-01-09T13:06:27;1.53;;;0.63;;
8927;SDS011;4499;48.304;11.902;2023-01-09T13:09:04;3.30;;;0.90;;
8927;SDS011;4499;48.304;11.902;2023-01-09T13:11:39;4.13;;;1.10;;
8927;SDS011;4499;48.304;11.902;2023-01-09T13:14:15;3.23;;;0.90;;
8927;SDS011;4499;48.304;11.902;2023-01-09T13:16:49;2.03;;;1.00;;
8927;SDS011;4499;48.304;11.902;2023-01-09T13:19:22;2.70;;;1.30;;
8927;SDS011;4499;48.304;11.902;2023-01-09T13:21:53;4.43;;;1.43;;
8927;SDS011;4499;48.304;11.902;2023-01-09T13:24:26;3.87;;;1.20;;
8927;SDS011;4499;48.304;11.902;2023-01-09T13:27:00;2.70;;;1.17;;
8927;SDS011;4499;48.304;11.902;2023-01-09T13:29:33;4.30;;;1.37;;
8927;SDS011;4499;48.304;11.902;2023-01-09T13:32:17;3.93;;;1.40;;
8927;SDS011;4499;48.304;11.902;2023-01-09T13:34:55;4.50;;;1.00;;
8927;SDS011;4499;48.304;11.902;2023-01-09T13:37:24;2.67;;;1.10;;
8927;SDS011;4499;48.304;11.902;2023-01-09T13:39:59;2.77;;;1.07;;
8927;SDS011;4499;48.304;11.902;2023-01-09T13:42:29;3.57;;;1.00;;
8927;SDS011;4499;48.304;11.902;2023-01-09T13:45:08;4.00;;;1.10;;
8927;SDS011;4499;48.304;11.902;2023-01-09T13:47:46;2.67;;;1.07;;
8927;SDS011;4499;48.304;11.902;2023-01-09T13:53:55;3.90;;;1.57;;
8927;SDS011;4499;48.304;11.902;2023-01-09T13:56:23;3.27;;;1.00;;
8927;SDS011;4499;48.304;11.902;2023-01-09T13:58:58;3.77;;;1.00;;
8927;SDS011;4499;48.304;11.902;2023-01-09T14:01:40;3.87;;;1.07;;
8927;SDS011;4499;48.304;11.902;2023-01-09T14:07:14;4.47;;;1.40;;
8927;SDS011;4499;48.304;11.902;2023-01-09T14:09:48;3.23;;;0.97;;
8927;SDS011;4499;48.304;11.902;2023-01-09T14:12:28;2.87;;;1.30;;
8927;SDS011;4499;48.304;11.902;2023-01-09T14:14:59;2.70;;;1.00;;
8927;SDS011;4499;48.304;11.902;2023-01-09T14:17:32;4.88;;;1.30;;
8927;SDS011;4499;48.304;11.902;2023-01-09T14:20:05;3.73;;;1.47;;
8927;SDS011;4499;48.304;11.902;2023-01-09T14:22:35;10.77;;;5.07;;
8927;SDS011;4499;48.304;11.902;2023-01-09T14:25:22;19.83;;;13.37;;
8927;SDS011;4499;48.304;11.902;2023-01-09T14:28:04;5.83;;;3.87;;
8927;SDS011;4499;48.304;11.902;2023-01-09T14:30:38;4.43;;;2.50;;
8927;SDS011;4499;48.304;11.902;2023-01-09T14:33:32;5.60;;;2.30;;
8927;SDS011;4499;48.304;11.902;2023-01-09T14:36:10;6.60;;;2.57;;
8927;SDS011;4499;48.304;11.902;2023-01-09T14:38:41;23.10;;;14.13;;
8927;SDS011;4499;48.304;11.902;2023-01-09T14:41:19;6.13;;;2.80;;
8927;SDS011;4499;48.304;11.902;2023-01-09T14:44:17;4.13;;;2.40;;
8927;SDS011;4499;48.304;11.902;2023-01-09T14:46:52;12.70;;;7.13;;
8927;SDS011;4499;48.304;11.902;2023-01-09T14:49:24;3.70;;;1.50;;
8927;SDS011;4499;48.304;11.902;2023-01-09T14:52:01;20.87;;;13.33;;
8927;SDS011;4499;48.304;11.902;2023-01-09T14:54:37;24.97;;;14.57;;
8927;SDS011;4499;48.304;11.902;2023-01-09T14:57:21;27.57;;;19.43;;
8927;SDS011;4499;48.304;11.902;2023-01-09T14:59:54;3.70;;;1.73;;
8927;SDS011;4499;48.304;11.902;2023-01-09T15:02:23;2.70;;;1.53;;
8927;SDS011;4499;48.304;11.902;2023-01-09T15:04:58;4.53;;;1.40;;
8927;SDS011;4499;48.304;11.902;2023-01-09T15:07:32;2.30;;;1.43;;
8927;SDS011;4499;48.304;11.902;2023-01-09T15:10:10;5.37;;;1.87;;
8927;SDS011;4499;48.304;11.902;2023-01-09T15:12:43;2.93;;;1.30;;
8927;SDS011;4499;48.304;11.902;2023-01-09T15:15:13;3.80;;;1.33;;
8927;SDS011;4499;48.304;11.902;2023-01-09T15:17:43;6.00;;;1.90;;
8927;SDS011;4499;48.304;11.902;2023-01-09T15:20:15;2.80;;;1.43;;
8927;SDS011;4499;48.304;11.902;2023-01-09T15:22:48;4.83;;;1.87;;
8927;SDS011;4499;48.304;11.902;2023-01-09T15:25:21;4.13;;;1.60;;
8927;SDS011;4499;48.304;11.902;2023-01-09T15:28:18;3.80;;;1.30;;
8927;SDS011;4499;48.304;11.902;2023-01-09T15:30:55;3.93;;;1.20;;
8927;SDS011;4499;48.304;11.902;2023-01-09T15:33:28;6.20;;;1.20;;
8927;SDS011;4499;48.304;11.902;2023-01-09T15:35:57;3.47;;;1.40;;
8927;SDS011;4499;48.304;11.902;2023-01-09T15:38:30;3.93;;;1.30;;
8927;SDS011;4499;48.304;11.902;2023-01-09T15:41:03;6.43;;;1.40;;
8927;SDS011;4499;48.304;11.902;2023-01-09T15:43:37;2.17;;;1.03;;